ADDS TAF Board (Experimental) INFO Settings
IDs: Format: Expanded Condensed

KBOS - Boston/Logan Intl, MA, US

Issued at 2105 UTC 05 Feb 2016
Updated at: 2209 UTC 05 Feb 2016
Time2159Z 05/23Z 06/00Z 06/01Z 06/02Z 06/03Z 06/04Z 06/05Z 06/06Z 06/07Z 06/08Z 06/09Z 06/10Z 06/11Z
Type OBS PRVL PRVL PRVL PRVL PRVL PRVL PRVL PRVL PRVL PRVL PRVL PRVL PRVL
VIS 2 >6 >6 >6 >6 >6 >6 >6 >6 >6 >6 >6 >6 >6
CIG 23 50 -- -- -- -- -- -- -- -- -- -- -- --
Cover OVC BKN SKC SKC SKC SKC SKC SKC SKC SKC SKC SKC SKC SKC
FltCat IFR VFR VFR VFR VFR VFR VFR VFR VFR VFR VFR VFR VFR VFR
WX -SN BR VCSH -- -- -- -- -- -- -- -- -- -- -- --
WDir 330 320 320 320 320 320 320 320 320 320 320 290 290 290
WSpd 10 12 15 15 15 15 15 15 15 15 15 7 7 7
WGst -- 22 22 22 22 22 22 22 22 22 22 -- -- --
R04/22
XWnd 8 10 13 13 13 13 13 13 13 13 13 7 7 7
XGst -- 19 19 19 19 19 19 19 19 19 19 -- -- --
HWnd 6 6 8 8 8 8 8 8 8 8 8 -0 -0 -0
HGst -- 11 11 11 11 11 11 11 11 11 11 -- -- --
R09/27
XWnd 10 11 13 13 13 13 13 13 13 13 13 4 4 4
XGst -- 20 20 20 20 20 20 20 20 20 20 -- -- --
HWnd -3 -5 -7 -7 -7 -7 -7 -7 -7 -7 -7 -6 -6 -6
HGst -- -10 -10 -10 -10 -10 -10 -10 -10 -10 -10 -- -- --
R14/32
XWnd 4 3 4 4 4 4 4 4 4 4 4 -2 -2 -2
XGst -- 6 6 6 6 6 6 6 6 6 6 -- -- --
HWnd -9 -12 -14 -14 -14 -14 -14 -14 -14 -14 -14 -7 -7 -7
HGst -- -21 -21 -21 -21 -21 -21 -21 -21 -21 -21 -- -- --
R15/33
XWnd 3 1 1 1 1 1 1 1 1 1 1 -3 -3 -3
XGst -- 2 2 2 2 2 2 2 2 2 2 -- -- --
HWnd -10 -12 -15 -15 -15 -15 -15 -15 -15 -15 -15 -6 -6 -6
HGst -- -22 -22 -22 -22 -22 -22 -22 -22 -22 -22 -- -- --

NOTE: TEMPO conditions in [brackets]. Keep in mind TEMPO conditions might be better (lower impact) than prevailing conditions.

Raw TAF
KBOS 052105Z 0521/0624 32015G25KT 3/4SM -SN BR OVC015
  FM052200 32012G22KT P6SM VCSH SCT015 BKN050
  FM060000 32015G22KT P6SM SKC
  FM060900 29007KT P6SM SKC
  FM061400 25006KT P6SM SCT200


Raw METAR
KBOS 052159Z 33010KT 2SM -SN BR FEW014 OVC023 M01/M03 A3002 RMK AO2 VIS 1 E P0000
KBOS 052154Z 33009G19KT 3/4SM R04R/P6000FT -SN BR VV017 M01/M02 A3002 RMK AO2 SFC VIS 1 SLP164 P0001 T10061022
KBOS 052054Z 31016G20KT 3/4SM R04R/5000VP6000FT -SN BR VV014 M02/M03 A2997 RMK AO2 SLP147 P0001 60010 T10171028 55003 $
KBOS 051954Z 31014G21KT 3/4SM R04R/3500V4500FT -SN BR VV011 M02/M02 A2995 RMK AO2 SLP142 P0002 T10171017 $
KBOS 051941Z 31016G21KT 3/4SM R04R/3500V4500FT -SN BR FEW007 OVC012 M02/M02 A2996 RMK AO2 P0002 $

METAR Board
Radar Display
Forecast Discussion

TAF Board Legend

Potential Impact
Threat None Slight Moderate High
Visibility (sm) ≥5.1 5.1>X≥3 3>X≥1 <1
Ceiling (100 ft) ≥30.1 30.1>X≥10 10>X≥5 <5
Wind Speed (kt) <10 10≤X<20 20≤X<30 ≥30
Wind Gust (kt) <15 15≤X<25 25≤X<35 ≥35
Weather No Wx Reported VCTS,-TS,-FZRA,SN TS,FZRA +TS,+FZRA,+SN